Søk
Bilder fra klubbens virksomhet
Tooltip
Soloflygninger
Tooltip
Espen Wiik har fløyet solo
Tooltip
Rashad Habib har fløyet solo
Tooltip
David Froholt har fløyet solo
Tooltip
Leif Olsen er pilot
  • Tilfeldig bilde
     
    Opplastet 21-05-2008
    Opplastet 12-05-2008
    Opplastet 12-05-2008
     
  • Siste bilde
     
    Opplastet 27-07-2018
    Opplastet 05-06-2018
    Opplastet 31-10-2017
     
«StartForrige1234NesteSiste»
Side 1 av 4
 
 
METAR
2018/08/16 11:50 ENCN 161150Z 19016KT 4100 -RADZ BR FEW001 BKN009 18/18 Q1008
TAF
2018/08/16 12:36 TAF TAF ENCN 161100Z 1612/1621 20015KT 9000 -RA SCT004 BKN012 TEMPO 1612/1621 20018G28KT 4000 RADZ BR OVC004 BECMG 1617/1619 BKN018
LN-KFK
< 10 timer til service
VFR dag
05:04 - 21:58
Brannvakt
Inaktiv
Banner
Banner
Banner
Banner
Banner